Archival Weather

Fukuoka

Fukuoka, Japan (RJFF)

Report from: Tuesday, August 16, 2022 1:30 PM JST
Current time: Sunday, November 27, 2022 5:16 PM JST

Current weather
Weather history
Weather forecast

Present weatherHeavy rain showers, mist, heavy thunderstorm with rain
Temperature28.0°C (82.4°F)
Heat index33.5°C (92.3°F)
Dew point26.0°C (78.8°F)
Winds 7 kts (3.6 m/s, 8.1 mph) Vrb
Winds variableWinds variable from East-Southeast (110°) to South-Southwest (200°)
Visibility1.9 mi. (3 km)
Clouds Few clouds 800 ft. (244 m)
Few clouds with towering cumulus 2,000 ft. (610 m)
Scattered clouds 2,500 ft. (762 m)
Ceiling: Broken clouds 3,000 ft. (914 m)
Altimeter29.74 in.Hg (1007 mB)
Relative humidity89 %
Density altitude2,154 ft. (657 m)
Remarks Towering cumulus clouds observed overhead moving northeast
Flight conditions Instrument Meteorological Conditions
Raw dataRJFF 160430Z 15007KT 110V200 3000 R16/0900VP2000D +SHRA BR FEW008 FEW020TCU SCT025 BKN030 28/26 Q1007 TEMPO 1500 +TSRA BR RMK 1ST008 2TCU020 3CU025 5CU030 A2974 TCU OHD MOV NE
An error has occurred. This application may no longer respond until reloaded. Reload 🗙